sensor_id;sensor_type;location;lat;lon;timestamp;temperature;humidity
52725;DHT22;38621;52.830;6.914;2022-12-17T00:02:10;-1.40;99.90
52725;DHT22;38621;52.830;6.914;2022-12-17T00:04:54;-1.40;99.90
52725;DHT22;38621;52.830;6.914;2022-12-17T00:07:39;-1.50;99.90
52725;DHT22;38621;52.830;6.914;2022-12-17T00:10:23;-1.50;99.90
52725;DHT22;38621;52.830;6.914;2022-12-17T00:13:20;-1.40;99.90
52725;DHT22;38621;52.830;6.914;2022-12-17T00:16:05;-1.20;99.90
52725;DHT22;38621;52.830;6.914;2022-12-17T00:18:49;-1.40;99.90
52725;DHT22;38621;52.830;6.914;2022-12-17T00:21:34;-1.50;99.90
52725;DHT22;38621;52.830;6.914;2022-12-17T00:24:18;-1.30;99.90
52725;DHT22;38621;52.830;6.914;2022-12-17T00:27:02;-1.50;99.90
52725;DHT22;38621;52.830;6.914;2022-12-17T00:29:46;-1.50;99.90
52725;DHT22;38621;52.830;6.914;2022-12-17T00:32:32;-1.50;99.90
52725;DHT22;38621;52.830;6.914;2022-12-17T00:35:16;-1.40;99.90
52725;DHT22;38621;52.830;6.914;2022-12-17T00:38:00;-1.40;99.90
52725;DHT22;38621;52.830;6.914;2022-12-17T00:40:52;-1.40;99.90
52725;DHT22;38621;52.830;6.914;2022-12-17T00:43:37;-1.40;99.90
52725;DHT22;38621;52.830;6.914;2022-12-17T00:46:21;-1.40;99.90
52725;DHT22;38621;52.830;6.914;2022-12-17T00:49:05;-1.40;99.90
52725;DHT22;38621;52.830;6.914;2022-12-17T00:51:50;-1.10;99.90
52725;DHT22;38621;52.830;6.914;2022-12-17T00:54:34;-1.40;99.90
52725;DHT22;38621;52.830;6.914;2022-12-17T00:57:19;-1.50;99.90
52725;DHT22;38621;52.830;6.914;2022-12-17T01:00:04;-1.50;99.90
52725;DHT22;38621;52.830;6.914;2022-12-17T01:02:49;-1.40;99.90
52725;DHT22;38621;52.830;6.914;2022-12-17T01:05:33;-1.40;99.90
52725;DHT22;38621;52.830;6.914;2022-12-17T01:08:17;-1.40;99.90
52725;DHT22;38621;52.830;6.914;2022-12-17T01:11:05;-1.40;99.90
52725;DHT22;38621;52.830;6.914;2022-12-17T01:13:49;-1.40;99.90
52725;DHT22;38621;52.830;6.914;2022-12-17T01:16:34;-1.40;99.90
52725;DHT22;38621;52.830;6.914;2022-12-17T01:19:18;-1.40;99.90
52725;DHT22;38621;52.830;6.914;2022-12-17T01:22:03;-1.40;99.90
52725;DHT22;38621;52.830;6.914;2022-12-17T01:24:48;-1.30;99.90
52725;DHT22;38621;52.830;6.914;2022-12-17T01:27:32;-1.30;99.90
52725;DHT22;38621;52.830;6.914;2022-12-17T01:30:30;-1.30;99.90
52725;DHT22;38621;52.830;6.914;2022-12-17T01:33:34;-1.30;99.90
52725;DHT22;38621;52.830;6.914;2022-12-17T01:36:19;-1.60;99.90
52725;DHT22;38621;52.830;6.914;2022-12-17T01:39:03;-1.40;99.90
52725;DHT22;38621;52.830;6.914;2022-12-17T01:41:48;-1.40;99.90
52725;DHT22;38621;52.830;6.914;2022-12-17T01:44:53;-1.40;99.90
52725;DHT22;38621;52.830;6.914;2022-12-17T01:47:46;-1.50;99.90
52725;DHT22;38621;52.830;6.914;2022-12-17T01:50:34;-1.50;99.90
52725;DHT22;38621;52.830;6.914;2022-12-17T01:53:23;-1.50;99.90
52725;DHT22;38621;52.830;6.914;2022-12-17T01:56:08;-1.50;99.90
52725;DHT22;38621;52.830;6.914;2022-12-17T01:58:53;-1.50;99.90
52725;DHT22;38621;52.830;6.914;2022-12-17T02:01:39;-1.60;99.90
52725;DHT22;38621;52.830;6.914;2022-12-17T02:04:23;-1.50;99.90
52725;DHT22;38621;52.830;6.914;2022-12-17T02:07:57;-1.50;99.90
52725;DHT22;38621;52.830;6.914;2022-12-17T02:10:19;-0.50;99.90
52725;DHT22;38621;52.830;6.914;2022-12-17T02:13:13;-1.60;99.90
52725;DHT22;38621;52.830;6.914;2022-12-17T02:16:14;-1.60;99.90
52725;DHT22;38621;52.830;6.914;2022-12-17T02:22:36;-1.50;99.90
52725;DHT22;38621;52.830;6.914;2022-12-17T02:28:19;-1.50;99.90
52725;DHT22;38621;52.830;6.914;2022-12-17T02:31:05;-1.50;99.90
52725;DHT22;38621;52.830;6.914;2022-12-17T02:33:50;-1.60;99.90
52725;DHT22;38621;52.830;6.914;2022-12-17T02:36:35;-1.60;99.90
52725;DHT22;38621;52.830;6.914;2022-12-17T02:39:20;-1.70;99.90
52725;DHT22;38621;52.830;6.914;2022-12-17T02:42:04;-1.70;99.90
52725;DHT22;38621;52.830;6.914;2022-12-17T02:44:49;-1.70;99.90
52725;DHT22;38621;52.830;6.914;2022-12-17T02:47:33;-1.60;99.90
52725;DHT22;38621;52.830;6.914;2022-12-17T02:50:18;-1.60;99.90
52725;DHT22;38621;52.830;6.914;2022-12-17T02:53:03;-1.70;99.90
52725;DHT22;38621;52.830;6.914;2022-12-17T02:55:47;-1.70;99.90
52725;DHT22;38621;52.830;6.914;2022-12-17T02:58:31;-1.60;99.90
52725;DHT22;38621;52.830;6.914;2022-12-17T03:01:16;-1.70;99.90
52725;DHT22;38621;52.830;6.914;2022-12-17T03:04:00;-1.70;99.90
52725;DHT22;38621;52.830;6.914;2022-12-17T03:06:45;-1.70;99.90
52725;DHT22;38621;52.830;6.914;2022-12-17T03:09:29;-1.70;99.90
52725;DHT22;38621;52.830;6.914;2022-12-17T03:12:14;-1.70;99.90
52725;DHT22;38621;52.830;6.914;2022-12-17T03:14:58;-1.70;99.90
52725;DHT22;38621;52.830;6.914;2022-12-17T03:17:42;-1.70;99.90
52725;DHT22;38621;52.830;6.914;2022-12-17T03:20:27;-1.80;99.90
52725;DHT22;38621;52.830;6.914;2022-12-17T03:23:11;-1.90;99.90
52725;DHT22;38621;52.830;6.914;2022-12-17T03:26:02;-1.90;99.90
52725;DHT22;38621;52.830;6.914;2022-12-17T03:28:47;-1.90;99.90
52725;DHT22;38621;52.830;6.914;2022-12-17T03:31:31;-1.90;99.90
52725;DHT22;38621;52.830;6.914;2022-12-17T03:34:15;-1.90;99.90
52725;DHT22;38621;52.830;6.914;2022-12-17T03:37:00;-1.90;99.90
52725;DHT22;38621;52.830;6.914;2022-12-17T03:39:44;-1.90;99.90
52725;DHT22;38621;52.830;6.914;2022-12-17T03:42:28;-1.90;99.90
52725;DHT22;38621;52.830;6.914;2022-12-17T03:45:12;-1.90;99.90
52725;DHT22;38621;52.830;6.914;2022-12-17T03:48:08;-1.90;99.90
52725;DHT22;38621;52.830;6.914;2022-12-17T03:50:53;-1.80;99.90
52725;DHT22;38621;52.830;6.914;2022-12-17T03:53:37;-1.80;99.90
52725;DHT22;38621;52.830;6.914;2022-12-17T03:56:22;-1.90;99.90
52725;DHT22;38621;52.830;6.914;2022-12-17T03:59:06;-1.30;99.90
52725;DHT22;38621;52.830;6.914;2022-12-17T04:01:50;-1.90;99.90
52725;DHT22;38621;52.830;6.914;2022-12-17T04:04:35;-1.90;99.90
52725;DHT22;38621;52.830;6.914;2022-12-17T04:07:19;-2.50;99.90
52725;DHT22;38621;52.830;6.914;2022-12-17T04:10:04;-1.90;99.90
52725;DHT22;38621;52.830;6.914;2022-12-17T04:12:48;-1.90;99.90
52725;DHT22;38621;52.830;6.914;2022-12-17T04:15:32;-1.90;99.90
52725;DHT22;38621;52.830;6.914;2022-12-17T04:18:16;-1.90;99.90
52725;DHT22;38621;52.830;6.914;2022-12-17T04:21:01;-2.00;99.90
52725;DHT22;38621;52.830;6.914;2022-12-17T04:23:45;-2.00;99.90
52725;DHT22;38621;52.830;6.914;2022-12-17T04:26:30;-2.00;99.90
52725;DHT22;38621;52.830;6.914;2022-12-17T04:29:14;-2.00;99.90
52725;DHT22;38621;52.830;6.914;2022-12-17T04:31:58;-2.10;99.90
52725;DHT22;38621;52.830;6.914;2022-12-17T04:34:42;-2.20;99.90
52725;DHT22;38621;52.830;6.914;2022-12-17T04:37:27;-2.20;99.90
52725;DHT22;38621;52.830;6.914;2022-12-17T04:40:11;-2.20;99.90
52725;DHT22;38621;52.830;6.914;2022-12-17T04:42:56;-2.20;99.90
52725;DHT22;38621;52.830;6.914;2022-12-17T04:45:40;-2.20;99.90
52725;DHT22;38621;52.830;6.914;2022-12-17T04:48:25;-2.10;99.90
52725;DHT22;38621;52.830;6.914;2022-12-17T04:51:09;-2.10;99.90
52725;DHT22;38621;52.830;6.914;2022-12-17T04:53:54;-2.10;99.90
52725;DHT22;38621;52.830;6.914;2022-12-17T04:56:38;-2.10;99.90
52725;DHT22;38621;52.830;6.914;2022-12-17T04:59:22;-2.00;99.90
52725;DHT22;38621;52.830;6.914;2022-12-17T05:02:21;-2.20;99.90
52725;DHT22;38621;52.830;6.914;2022-12-17T05:05:05;-2.20;99.90
52725;DHT22;38621;52.830;6.914;2022-12-17T05:07:54;-2.20;99.90
52725;DHT22;38621;52.830;6.914;2022-12-17T05:10:38;-2.10;99.90
52725;DHT22;38621;52.830;6.914;2022-12-17T05:13:23;-2.10;99.90
52725;DHT22;38621;52.830;6.914;2022-12-17T05:16:07;-2.10;99.90
52725;DHT22;38621;52.830;6.914;2022-12-17T05:18:52;-2.10;99.90
52725;DHT22;38621;52.830;6.914;2022-12-17T05:21:37;-2.10;99.90
52725;DHT22;38621;52.830;6.914;2022-12-17T05:24:21;-2.10;99.90
52725;DHT22;38621;52.830;6.914;2022-12-17T05:27:05;-2.10;99.90
52725;DHT22;38621;52.830;6.914;2022-12-17T05:29:49;-2.10;99.90
52725;DHT22;38621;52.830;6.914;2022-12-17T05:32:33;-2.10;99.90
52725;DHT22;38621;52.830;6.914;2022-12-17T05:35:18;-2.10;99.90
52725;DHT22;38621;52.830;6.914;2022-12-17T05:38:04;-2.20;99.90
52725;DHT22;38621;52.830;6.914;2022-12-17T05:40:49;-2.20;99.90
52725;DHT22;38621;52.830;6.914;2022-12-17T05:43:33;-2.10;99.90
52725;DHT22;38621;52.830;6.914;2022-12-17T05:46:17;-2.10;99.90
52725;DHT22;38621;52.830;6.914;2022-12-17T05:49:01;-2.10;99.90
52725;DHT22;38621;52.830;6.914;2022-12-17T05:51:46;-2.10;99.90
52725;DHT22;38621;52.830;6.914;2022-12-17T05:54:30;-2.10;99.90
52725;DHT22;38621;52.830;6.914;2022-12-17T05:57:14;-2.10;99.90
52725;DHT22;38621;52.830;6.914;2022-12-17T05:59:59;-2.10;99.90
52725;DHT22;38621;52.830;6.914;2022-12-17T06:02:43;-2.20;99.90
52725;DHT22;38621;52.830;6.914;2022-12-17T06:05:28;-2.20;99.90
52725;DHT22;38621;52.830;6.914;2022-12-17T06:08:12;-2.30;99.90
52725;DHT22;38621;52.830;6.914;2022-12-17T06:10:58;-2.30;99.90
52725;DHT22;38621;52.830;6.914;2022-12-17T06:13:43;-2.30;99.90
52725;DHT22;38621;52.830;6.914;2022-12-17T06:16:27;-2.30;99.90
52725;DHT22;38621;52.830;6.914;2022-12-17T06:19:11;-2.20;99.90
52725;DHT22;38621;52.830;6.914;2022-12-17T06:21:56;-2.20;99.90
52725;DHT22;38621;52.830;6.914;2022-12-17T06:24:40;-2.20;99.90
52725;DHT22;38621;52.830;6.914;2022-12-17T06:27:24;-2.30;99.90
52725;DHT22;38621;52.830;6.914;2022-12-17T06:30:09;-2.30;99.90
52725;DHT22;38621;52.830;6.914;2022-12-17T06:33:07;-2.30;99.90
52725;DHT22;38621;52.830;6.914;2022-12-17T06:35:53;-2.40;99.90
52725;DHT22;38621;52.830;6.914;2022-12-17T06:38:38;-2.40;99.90
52725;DHT22;38621;52.830;6.914;2022-12-17T06:41:22;-2.50;99.90
52725;DHT22;38621;52.830;6.914;2022-12-17T06:44:14;-2.50;99.90
52725;DHT22;38621;52.830;6.914;2022-12-17T06:46:58;-2.60;99.90
52725;DHT22;38621;52.830;6.914;2022-12-17T06:49:43;-2.50;99.90
52725;DHT22;38621;52.830;6.914;2022-12-17T06:52:27;-2.50;99.90
52725;DHT22;38621;52.830;6.914;2022-12-17T06:55:12;-2.50;99.90
52725;DHT22;38621;52.830;6.914;2022-12-17T06:57:57;-2.50;99.90
52725;DHT22;38621;52.830;6.914;2022-12-17T07:00:41;-2.50;99.90
52725;DHT22;38621;52.830;6.914;2022-12-17T07:03:26;-3.50;99.90
52725;DHT22;38621;52.830;6.914;2022-12-17T07:06:10;-2.60;99.90
52725;DHT22;38621;52.830;6.914;2022-12-17T07:08:54;-2.40;99.90
52725;DHT22;38621;52.830;6.914;2022-12-17T07:11:39;-2.60;99.90
52725;DHT22;38621;52.830;6.914;2022-12-17T07:14:23;-2.60;99.90
52725;DHT22;38621;52.830;6.914;2022-12-17T07:17:08;-2.60;99.90
52725;DHT22;38621;52.830;6.914;2022-12-17T07:19:52;-2.50;99.90
52725;DHT22;38621;52.830;6.914;2022-12-17T07:22:36;-2.50;99.90
52725;DHT22;38621;52.830;6.914;2022-12-17T07:25:21;-2.50;99.90
52725;DHT22;38621;52.830;6.914;2022-12-17T07:28:05;-2.50;99.90
52725;DHT22;38621;52.830;6.914;2022-12-17T07:30:49;-2.50;99.90
52725;DHT22;38621;52.830;6.914;2022-12-17T07:33:34;-2.60;99.90
52725;DHT22;38621;52.830;6.914;2022-12-17T07:36:18;-2.50;99.90
52725;DHT22;38621;52.830;6.914;2022-12-17T07:39:02;-2.50;99.90
52725;DHT22;38621;52.830;6.914;2022-12-17T07:41:46;-2.60;99.90
52725;DHT22;38621;52.830;6.914;2022-12-17T07:44:31;-2.60;99.90
52725;DHT22;38621;52.830;6.914;2022-12-17T07:47:15;-2.60;99.90
52725;DHT22;38621;52.830;6.914;2022-12-17T07:49:59;-2.60;99.90
52725;DHT22;38621;52.830;6.914;2022-12-17T07:52:44;-2.60;99.90
52725;DHT22;38621;52.830;6.914;2022-12-17T07:55:28;-2.70;99.90
52725;DHT22;38621;52.830;6.914;2022-12-17T07:58:12;-2.70;99.90
52725;DHT22;38621;52.830;6.914;2022-12-17T08:01:00;-2.80;99.90
52725;DHT22;38621;52.830;6.914;2022-12-17T08:03:45;-2.80;99.90
52725;DHT22;38621;52.830;6.914;2022-12-17T08:06:30;-3.30;99.90
52725;DHT22;38621;52.830;6.914;2022-12-17T08:09:14;-2.80;99.90
52725;DHT22;38621;52.830;6.914;2022-12-17T08:11:58;-2.80;99.90
52725;DHT22;38621;52.830;6.914;2022-12-17T08:14:43;-2.80;99.90
52725;DHT22;38621;52.830;6.914;2022-12-17T08:17:27;-2.80;99.90
52725;DHT22;38621;52.830;6.914;2022-12-17T08:20:12;-2.80;99.90
52725;DHT22;38621;52.830;6.914;2022-12-17T08:23:03;-2.90;99.90
52725;DHT22;38621;52.830;6.914;2022-12-17T08:25:48;-2.80;99.90
52725;DHT22;38621;52.830;6.914;2022-12-17T08:28:32;-2.80;99.90
52725;DHT22;38621;52.830;6.914;2022-12-17T08:31:17;-2.80;99.90
52725;DHT22;38621;52.830;6.914;2022-12-17T08:34:01;-2.90;99.90
52725;DHT22;38621;52.830;6.914;2022-12-17T08:36:46;-2.90;99.90
52725;DHT22;38621;52.830;6.914;2022-12-17T08:39:30;-1.40;99.90
52725;DHT22;38621;52.830;6.914;2022-12-17T08:42:14;-2.90;99.90
52725;DHT22;38621;52.830;6.914;2022-12-17T08:44:59;-2.80;99.90
52725;DHT22;38621;52.830;6.914;2022-12-17T08:47:43;-2.80;99.90
52725;DHT22;38621;52.830;6.914;2022-12-17T08:50:28;-2.70;99.90
52725;DHT22;38621;52.830;6.914;2022-12-17T08:53:12;-2.60;99.90
52725;DHT22;38621;52.830;6.914;2022-12-17T08:55:56;-2.60;99.90
52725;DHT22;38621;52.830;6.914;2022-12-17T08:58:40;-2.60;99.90
52725;DHT22;38621;52.830;6.914;2022-12-17T09:01:25;-2.60;99.90
52725;DHT22;38621;52.830;6.914;2022-12-17T09:04:09;-2.60;99.90
52725;DHT22;38621;52.830;6.914;2022-12-17T09:06:54;-2.60;99.90
52725;DHT22;38621;52.830;6.914;2022-12-17T09:09:38;-2.60;99.90
52725;DHT22;38621;52.830;6.914;2022-12-17T09:12:23;-2.60;99.90
52725;DHT22;38621;52.830;6.914;2022-12-17T09:15:07;-2.60;99.90
52725;DHT22;38621;52.830;6.914;2022-12-17T09:17:51;-2.60;99.90
52725;DHT22;38621;52.830;6.914;2022-12-17T09:20:36;-2.60;99.90
52725;DHT22;38621;52.830;6.914;2022-12-17T09:23:20;-2.60;99.90
52725;DHT22;38621;52.830;6.914;2022-12-17T09:26:05;-2.70;99.90
52725;DHT22;38621;52.830;6.914;2022-12-17T09:28:50;-2.60;99.90
52725;DHT22;38621;52.830;6.914;2022-12-17T09:31:34;-2.30;99.90
52725;DHT22;38621;52.830;6.914;2022-12-17T09:34:18;-2.50;99.90
52725;DHT22;38621;52.830;6.914;2022-12-17T09:37:03;-2.20;99.90
52725;DHT22;38621;52.830;6.914;2022-12-17T09:39:48;-2.50;99.90
52725;DHT22;38621;52.830;6.914;2022-12-17T09:42:44;-2.40;99.90
52725;DHT22;38621;52.830;6.914;2022-12-17T09:45:49;-2.40;99.90
52725;DHT22;38621;52.830;6.914;2022-12-17T09:49:11;-2.20;99.90
52725;DHT22;38621;52.830;6.914;2022-12-17T09:51:57;-2.40;99.90
52725;DHT22;38621;52.830;6.914;2022-12-17T09:54:49;-2.30;99.90
52725;DHT22;38621;52.830;6.914;2022-12-17T09:57:54;-2.30;99.90
52725;DHT22;38621;52.830;6.914;2022-12-17T10:00:39;-2.20;99.90
52725;DHT22;38621;52.830;6.914;2022-12-17T10:03:23;-1.90;99.90
52725;DHT22;38621;52.830;6.914;2022-12-17T10:06:15;-2.20;99.90
52725;DHT22;38621;52.830;6.914;2022-12-17T10:09:08;-2.20;99.90
52725;DHT22;38621;52.830;6.914;2022-12-17T10:11:52;-2.20;99.90
52725;DHT22;38621;52.830;6.914;2022-12-17T10:14:37;-2.20;99.90
52725;DHT22;38621;52.830;6.914;2022-12-17T10:17:22;-2.10;99.90
52725;DHT22;38621;52.830;6.914;2022-12-17T10:20:35;-2.00;99.90
52725;DHT22;38621;52.830;6.914;2022-12-17T10:23:29;-1.90;99.90
52725;DHT22;38621;52.830;6.914;2022-12-17T10:26:19;-1.90;99.90
52725;DHT22;38621;52.830;6.914;2022-12-17T10:29:11;-1.80;99.90
52725;DHT22;38621;52.830;6.914;2022-12-17T10:31:59;-1.70;99.90
52725;DHT22;38621;52.830;6.914;2022-12-17T10:34:51;-1.60;99.90
52725;DHT22;38621;52.830;6.914;2022-12-17T10:37:36;-1.60;99.90
52725;DHT22;38621;52.830;6.914;2022-12-17T10:40:28;-1.60;99.90
52725;DHT22;38621;52.830;6.914;2022-12-17T10:43:24;-1.60;99.90
52725;DHT22;38621;52.830;6.914;2022-12-17T10:46:09;-1.50;99.90
52725;DHT22;38621;52.830;6.914;2022-12-17T10:49:20;-1.50;99.90
52725;DHT22;38621;52.830;6.914;2022-12-17T10:55:00;-1.40;99.90
52725;DHT22;38621;52.830;6.914;2022-12-17T10:57:46;-1.10;99.90
52725;DHT22;38621;52.830;6.914;2022-12-17T11:00:32;-1.40;99.90
52725;DHT22;38621;52.830;6.914;2022-12-17T11:06:45;-1.40;99.90
52725;DHT22;38621;52.830;6.914;2022-12-17T11:09:37;-1.30;99.90
52725;DHT22;38621;52.830;6.914;2022-12-17T11:12:30;-1.20;99.90
52725;DHT22;38621;52.830;6.914;2022-12-17T11:15:51;-0.70;99.90
52725;DHT22;38621;52.830;6.914;2022-12-17T11:22:00;-1.10;99.90
52725;DHT22;38621;52.830;6.914;2022-12-17T11:24:51;-1.10;99.90
52725;DHT22;38621;52.830;6.914;2022-12-17T11:27:44;-1.10;99.90
52725;DHT22;38621;52.830;6.914;2022-12-17T11:30:40;-1.00;99.90
52725;DHT22;38621;52.830;6.914;2022-12-17T11:33:35;-1.00;99.90
52725;DHT22;38621;52.830;6.914;2022-12-17T11:36:23;-1.00;99.90
52725;DHT22;38621;52.830;6.914;2022-12-17T11:39:29;-1.00;99.90
52725;DHT22;38621;52.830;6.914;2022-12-17T11:42:33;-0.90;99.90
52725;DHT22;38621;52.830;6.914;2022-12-17T11:45:28;-0.90;99.90
52725;DHT22;38621;52.830;6.914;2022-12-17T11:48:34;-0.90;99.90
52725;DHT22;38621;52.830;6.914;2022-12-17T11:51:52;-0.80;99.90
52725;DHT22;38621;52.830;6.914;2022-12-17T11:55:00;-0.80;99.90
52725;DHT22;38621;52.830;6.914;2022-12-17T11:57:59;-0.80;99.90
52725;DHT22;38621;52.830;6.914;2022-12-17T12:01:18;-0.80;99.90
52725;DHT22;38621;52.830;6.914;2022-12-17T12:07:37;-0.80;99.90
52725;DHT22;38621;52.830;6.914;2022-12-17T12:10:57;-0.70;99.90
52725;DHT22;38621;52.830;6.914;2022-12-17T12:24:50;-0.80;99.90
52725;DHT22;38621;52.830;6.914;2022-12-17T12:27:21;-0.80;99.90
52725;DHT22;38621;52.830;6.914;2022-12-17T12:30:14;-0.80;99.90
52725;DHT22;38621;52.830;6.914;2022-12-17T12:33:34;-0.90;99.90
52725;DHT22;38621;52.830;6.914;2022-12-17T12:36:21;-0.90;99.90
52725;DHT22;38621;52.830;6.914;2022-12-17T12:39:12;-0.90;99.90
52725;DHT22;38621;52.830;6.914;2022-12-17T12:42:15;-0.90;99.90
52725;DHT22;38621;52.830;6.914;2022-12-17T12:51:02;-0.90;99.90
52725;DHT22;38621;52.830;6.914;2022-12-17T12:53:58;-0.90;99.90
52725;DHT22;38621;52.830;6.914;2022-12-17T12:56:43;-0.80;99.90
52725;DHT22;38621;52.830;6.914;2022-12-17T12:59:29;-0.90;99.90
52725;DHT22;38621;52.830;6.914;2022-12-17T13:05:37;-1.00;99.90
52725;DHT22;38621;52.830;6.914;2022-12-17T13:08:21;-1.00;99.90
52725;DHT22;38621;52.830;6.914;2022-12-17T13:10:48;-1.00;99.90
52725;DHT22;38621;52.830;6.914;2022-12-17T13:15:43;-1.00;99.90
52725;DHT22;38621;52.830;6.914;2022-12-17T13:18:35;-1.00;99.90
52725;DHT22;38621;52.830;6.914;2022-12-17T13:21:05;-1.10;99.90
52725;DHT22;38621;52.830;6.914;2022-12-17T13:23:47;-1.10;99.90
52725;DHT22;38621;52.830;6.914;2022-12-17T13:28:43;-1.20;99.90
52725;DHT22;38621;52.830;6.914;2022-12-17T13:31:16;-1.20;99.90
52725;DHT22;38621;52.830;6.914;2022-12-17T13:36:55;-1.20;99.90
52725;DHT22;38621;52.830;6.914;2022-12-17T13:39:30;-1.10;99.90
52725;DHT22;38621;52.830;6.914;2022-12-17T13:41:57;-1.30;99.90
52725;DHT22;38621;52.830;6.914;2022-12-17T13:44:26;-1.30;99.90
52725;DHT22;38621;52.830;6.914;2022-12-17T13:46:54;-1.30;99.90
52725;DHT22;38621;52.830;6.914;2022-12-17T13:49:25;-1.30;99.90
52725;DHT22;38621;52.830;6.914;2022-12-17T13:52:01;-1.30;99.90
52725;DHT22;38621;52.830;6.914;2022-12-17T13:54:27;-1.30;99.90
52725;DHT22;38621;52.830;6.914;2022-12-17T13:56:52;-1.30;99.90
52725;DHT22;38621;52.830;6.914;2022-12-17T13:59:23;-1.30;99.90
52725;DHT22;38621;52.830;6.914;2022-12-17T14:01:53;-1.20;99.90
52725;DHT22;38621;52.830;6.914;2022-12-17T14:04:24;-1.20;99.90
52725;DHT22;38621;52.830;6.914;2022-12-17T14:06:51;-1.20;99.90
52725;DHT22;38621;52.830;6.914;2022-12-17T14:09:19;-1.30;99.90
52725;DHT22;38621;52.830;6.914;2022-12-17T14:11:46;-1.30;99.90
52725;DHT22;38621;52.830;6.914;2022-12-17T14:14:43;-1.30;99.90
52725;DHT22;38621;52.830;6.914;2022-12-17T14:17:20;-1.30;99.90
52725;DHT22;38621;52.830;6.914;2022-12-17T14:19:49;-1.30;99.90
52725;DHT22;38621;52.830;6.914;2022-12-17T14:22:30;-1.40;99.90
52725;DHT22;38621;52.830;6.914;2022-12-17T14:24:57;-1.50;99.90
52725;DHT22;38621;52.830;6.914;2022-12-17T14:27:32;-1.60;99.90
52725;DHT22;38621;52.830;6.914;2022-12-17T14:29:57;-1.60;99.90
52725;DHT22;38621;52.830;6.914;2022-12-17T14:32:29;-1.60;99.90
52725;DHT22;38621;52.830;6.914;2022-12-17T14:34:55;-1.60;99.90
52725;DHT22;38621;52.830;6.914;2022-12-17T14:37:23;-1.60;99.90
52725;DHT22;38621;52.830;6.914;2022-12-17T14:39:50;-1.60;99.90
52725;DHT22;38621;52.830;6.914;2022-12-17T14:42:19;-1.60;99.90
52725;DHT22;38621;52.830;6.914;2022-12-17T14:44:54;-1.60;99.90
52725;DHT22;38621;52.830;6.914;2022-12-17T14:47:26;-1.70;99.90
52725;DHT22;38621;52.830;6.914;2022-12-17T14:52:33;-1.80;99.90
52725;DHT22;38621;52.830;6.914;2022-12-17T14:54:59;-1.90;99.90
52725;DHT22;38621;52.830;6.914;2022-12-17T14:57:25;-1.90;99.90
52725;DHT22;38621;52.830;6.914;2022-12-17T14:59:51;-1.90;99.90
52725;DHT22;38621;52.830;6.914;2022-12-17T15:02:23;-2.00;99.90
52725;DHT22;38621;52.830;6.914;2022-12-17T15:04:54;-2.00;99.90
52725;DHT22;38621;52.830;6.914;2022-12-17T15:07:23;-2.00;99.90
52725;DHT22;38621;52.830;6.914;2022-12-17T15:09:50;-2.00;99.90
52725;DHT22;38621;52.830;6.914;2022-12-17T15:12:21;-2.00;99.90
52725;DHT22;38621;52.830;6.914;2022-12-17T15:14:47;-2.00;99.90
52725;DHT22;38621;52.830;6.914;2022-12-17T15:17:14;-2.00;99.90
52725;DHT22;38621;52.830;6.914;2022-12-17T15:19:40;-2.00;99.90
52725;DHT22;38621;52.830;6.914;2022-12-17T15:22:12;-2.00;99.90
52725;DHT22;38621;52.830;6.914;2022-12-17T15:24:38;-2.00;99.90
52725;DHT22;38621;52.830;6.914;2022-12-17T15:27:04;-1.90;99.90
52725;DHT22;38621;52.830;6.914;2022-12-17T15:29:30;-1.70;99.90
52725;DHT22;38621;52.830;6.914;2022-12-17T15:31:56;-1.90;99.90
52725;DHT22;38621;52.830;6.914;2022-12-17T15:34:22;-1.90;99.90
52725;DHT22;38621;52.830;6.914;2022-12-17T15:36:47;-1.90;99.90
52725;DHT22;38621;52.830;6.914;2022-12-17T15:39:13;-1.90;99.90
52725;DHT22;38621;52.830;6.914;2022-12-17T15:41:39;-1.90;99.90
52725;DHT22;38621;52.830;6.914;2022-12-17T15:44:23;-2.00;99.90
52725;DHT22;38621;52.830;6.914;2022-12-17T15:46:49;-2.10;99.90
52725;DHT22;38621;52.830;6.914;2022-12-17T15:49:14;-2.10;99.90
52725;DHT22;38621;52.830;6.914;2022-12-17T15:51:40;-2.10;99.90
52725;DHT22;38621;52.830;6.914;2022-12-17T15:54:06;-2.20;99.90
52725;DHT22;38621;52.830;6.914;2022-12-17T15:56:31;-2.20;99.90
52725;DHT22;38621;52.830;6.914;2022-12-17T15:58:59;-2.30;99.90
52725;DHT22;38621;52.830;6.914;2022-12-17T16:01:25;-2.20;99.90
52725;DHT22;38621;52.830;6.914;2022-12-17T16:03:50;-2.30;99.90
52725;DHT22;38621;52.830;6.914;2022-12-17T16:06:16;-2.20;99.90
52725;DHT22;38621;52.830;6.914;2022-12-17T16:08:42;-2.20;99.90
52725;DHT22;38621;52.830;6.914;2022-12-17T16:11:09;-2.20;99.90
52725;DHT22;38621;52.830;6.914;2022-12-17T16:13:36;-2.30;99.90
52725;DHT22;38621;52.830;6.914;2022-12-17T16:16:02;-2.20;99.90
52725;DHT22;38621;52.830;6.914;2022-12-17T16:18:28;-2.20;99.90
52725;DHT22;38621;52.830;6.914;2022-12-17T16:20:54;-2.20;99.90
52725;DHT22;38621;52.830;6.914;2022-12-17T16:23:25;-2.20;99.90
52725;DHT22;38621;52.830;6.914;2022-12-17T16:25:58;-1.60;99.90
52725;DHT22;38621;52.830;6.914;2022-12-17T16:28:25;-2.30;99.90
52725;DHT22;38621;52.830;6.914;2022-12-17T16:33:30;-2.40;99.90
52725;DHT22;38621;52.830;6.914;2022-12-17T16:35:56;-2.10;99.90
52725;DHT22;38621;52.830;6.914;2022-12-17T16:38:22;-2.30;99.90
52725;DHT22;38621;52.830;6.914;2022-12-17T16:40:48;-2.30;99.90
52725;DHT22;38621;52.830;6.914;2022-12-17T16:43:14;-2.40;99.90
52725;DHT22;38621;52.830;6.914;2022-12-17T16:45:47;-2.40;99.90
52725;DHT22;38621;52.830;6.914;2022-12-17T16:48:13;-1.90;99.90
52725;DHT22;38621;52.830;6.914;2022-12-17T16:50:39;-2.50;99.90
52725;DHT22;38621;52.830;6.914;2022-12-17T16:53:05;-2.40;99.90
52725;DHT22;38621;52.830;6.914;2022-12-17T16:55:30;-2.50;99.90
52725;DHT22;38621;52.830;6.914;2022-12-17T16:57:56;-2.40;99.90
52725;DHT22;38621;52.830;6.914;2022-12-17T17:00:22;-2.40;99.90
52725;DHT22;38621;52.830;6.914;2022-12-17T17:02:47;-2.40;99.90
52725;DHT22;38621;52.830;6.914;2022-12-17T17:05:13;-2.40;99.90
52725;DHT22;38621;52.830;6.914;2022-12-17T17:07:39;-2.20;99.90
52725;DHT22;38621;52.830;6.914;2022-12-17T17:10:05;-2.40;99.90
52725;DHT22;38621;52.830;6.914;2022-12-17T17:12:30;-2.30;99.90
52725;DHT22;38621;52.830;6.914;2022-12-17T17:14:56;-2.30;99.90
52725;DHT22;38621;52.830;6.914;2022-12-17T17:17:22;-2.30;99.90
52725;DHT22;38621;52.830;6.914;2022-12-17T17:19:47;-2.30;99.90
52725;DHT22;38621;52.830;6.914;2022-12-17T17:22:13;-2.30;99.90
52725;DHT22;38621;52.830;6.914;2022-12-17T17:24:39;-2.20;99.90
52725;DHT22;38621;52.830;6.914;2022-12-17T17:27:04;-2.20;99.90
52725;DHT22;38621;52.830;6.914;2022-12-17T17:29:30;-2.30;99.90
52725;DHT22;38621;52.830;6.914;2022-12-17T17:31:56;-2.30;99.90
52725;DHT22;38621;52.830;6.914;2022-12-17T17:34:21;-2.30;99.90
52725;DHT22;38621;52.830;6.914;2022-12-17T17:36:47;-2.30;99.90
52725;DHT22;38621;52.830;6.914;2022-12-17T17:39:12;-2.30;99.90
52725;DHT22;38621;52.830;6.914;2022-12-17T17:41:38;-2.30;99.90
52725;DHT22;38621;52.830;6.914;2022-12-17T17:44:06;-2.30;99.90
52725;DHT22;38621;52.830;6.914;2022-12-17T17:46:33;-2.30;99.90
52725;DHT22;38621;52.830;6.914;2022-12-17T17:49:00;-2.30;99.90
52725;DHT22;38621;52.830;6.914;2022-12-17T17:51:29;-1.90;99.90
52725;DHT22;38621;52.830;6.914;2022-12-17T17:53:55;-2.40;99.90
52725;DHT22;38621;52.830;6.914;2022-12-17T17:56:30;-2.40;99.90